Time;durP1;ratioP1;P1;durP2;ratioP2;P2;SDS_P1;SDS_P2;PMS_P1;PMS_P2;Temp;Humidity;BMP_temperature;BMP_pressure;BME280_temperature;BME280_humidity;BME280_pressure;Samples;Min_cycle;Max_cycle;Signal;HPM_P1;HPM_P2
2023/08/21 00:00:18;;;;;;;11.87;10.67;;;;;;;18.34;100.00;98361.28;6219389;28;20311;-48
2023/08/21 00:03:21;;;;;;;11.63;10.57;;;;;;;18.25;100.00;98357.53;6214401;28;20311;-49
2023/08/21 00:06:24;;;;;;;10.67;9.67;;;;;;;18.28;100.00;98357.00;6198378;28;20228;-50
2023/08/21 00:09:26;;;;;;;12.63;11.53;;;;;;;18.25;100.00;98361.03;6213343;28;20231;-49
2023/08/21 00:12:29;;;;;;;12.17;10.80;;;;;;;18.14;100.00;98346.00;6216625;28;20223;-50
2023/08/21 00:15:31;;;;;;;12.33;10.63;;;;;;;18.19;100.00;98354.06;6208467;28;20338;-49
2023/08/21 00:18:33;;;;;;;11.50;10.50;;;;;;;18.17;100.00;98348.13;6217787;28;20231;-45
2023/08/21 00:21:36;;;;;;;12.13;10.93;;;;;;;18.16;100.00;98353.78;6219829;28;20374;-48
2023/08/21 00:24:38;;;;;;;12.23;11.03;;;;;;;18.14;100.00;98347.88;6216016;28;20816;-49
2023/08/21 00:27:40;;;;;;;14.70;11.77;;;;;;;18.07;100.00;98347.34;6218604;28;20232;-46
2023/08/21 00:30:43;;;;;;;13.67;12.27;;;;;;;18.03;100.00;98337.13;6221864;28;20242;-49
2023/08/21 00:33:45;;;;;;;12.23;11.13;;;;;;;18.06;100.00;98343.84;6202054;28;20382;-47
2023/08/21 00:36:49;;;;;;;11.13;10.13;;;;;;;18.01;100.00;98335.75;6220035;28;20361;-47
2023/08/21 00:39:51;;;;;;;14.33;10.20;;;;;;;18.08;100.00;98341.69;6219011;28;20283;-51
2023/08/21 00:42:53;;;;;;;11.40;10.20;;;;;;;18.07;100.00;98337.38;6201080;28;20268;-49
2023/08/21 00:45:57;;;;;;;12.40;10.10;;;;;;;18.05;100.00;98344.94;6219475;28;20235;-48
2023/08/21 00:48:59;;;;;;;11.80;10.60;;;;;;;18.00;100.00;98331.47;6202066;28;20332;-48
2023/08/21 00:52:02;;;;;;;11.90;10.87;;;;;;;18.01;100.00;98339.28;6219434;28;20704;-50
2023/08/21 00:55:07;;;;;;;11.30;10.30;;;;;;;18.00;100.00;98342.25;6218867;28;20670;-49
2023/08/21 00:58:13;;;;;;;10.97;9.70;;;;;;;17.99;100.00;98335.25;6201099;28;20232;-48
2023/08/21 01:01:19;;;;;;;11.47;9.93;;;;;;;17.96;100.00;98333.91;6181108;28;20235;-47
2023/08/21 01:04:22;;;;;;;12.17;10.97;;;;;;;17.92;100.00;98334.72;6197872;28;20233;-45
2023/08/21 01:07:25;;;;;;;12.30;11.10;;;;;;;17.90;100.00;98345.78;6195184;28;20239;-48
2023/08/21 01:10:43;;;;;;;11.33;10.33;;;;;;;17.88;100.00;98342.56;6223962;28;20235;-48
2023/08/21 01:13:57;;;;;;;11.37;10.27;;;;;;;17.87;100.00;98345.50;6218566;28;20507;-47
2023/08/21 01:17:02;;;;;;;12.20;10.27;;;;;;;17.83;100.00;98344.44;6222962;28;20228;-49
2023/08/21 01:20:10;;;;;;;12.03;11.00;;;;;;;17.79;100.00;98336.91;6214831;28;20221;-47
2023/08/21 01:23:35;;;;;;;11.70;10.63;;;;;;;17.77;100.00;98344.44;6219554;28;20232;-46
2023/08/21 01:26:38;;;;;;;11.63;10.53;;;;;;;17.65;100.00;98333.13;6215131;28;20240;-48
2023/08/21 01:29:40;;;;;;;10.80;9.83;;;;;;;17.73;100.00;98337.16;6211798;28;20330;-48
2023/08/21 01:33:08;;;;;;;10.13;9.23;;;;;;;17.72;100.00;98344.41;6206882;28;20263;-50
2023/08/21 01:36:11;;;;;;;14.37;11.33;;;;;;;17.71;100.00;98336.59;6213505;28;20232;-48
2023/08/21 01:39:13;;;;;;;12.17;11.07;;;;;;;17.69;100.00;98339.59;6220081;28;20289;-49
2023/08/21 01:42:16;;;;;;;12.80;11.57;;;;;;;17.67;100.00;98333.66;6218470;28;20302;-47
2023/08/21 01:45:18;;;;;;;11.97;10.87;;;;;;;17.64;100.00;98328.81;6200365;28;20347;-49
2023/08/21 01:48:20;;;;;;;12.27;11.13;;;;;;;17.59;100.00;98325.31;6207134;28;20215;-49
2023/08/21 01:51:22;;;;;;;11.43;10.23;;;;;;;17.62;100.00;98332.84;6215432;28;20224;-47
2023/08/21 01:54:25;;;;;;;11.30;10.27;;;;;;;17.61;100.00;98331.22;6201575;28;20362;-47
2023/08/21 01:57:27;;;;;;;11.37;10.27;;;;;;;17.59;100.00;98331.53;6199291;28;20228;-47
2023/08/21 02:00:30;;;;;;;11.10;10.10;;;;;;;17.58;100.00;98337.97;6209998;28;20235;-47
2023/08/21 02:03:32;;;;;;;11.73;10.53;;;;;;;17.58;100.00;98337.97;6223142;28;20254;-48
2023/08/21 02:06:35;;;;;;;12.37;10.93;;;;;;;17.54;100.00;98337.72;6217471;28;20239;-45
2023/08/21 02:09:37;;;;;;;11.70;10.60;;;;;;;17.51;100.00;98330.16;6201390;28;20312;-49
2023/08/21 02:12:40;;;;;;;12.67;11.37;;;;;;;17.45;100.00;98320.47;6217694;28;20295;-48
2023/08/21 02:15:43;;;;;;;13.03;10.37;;;;;;;17.46;100.00;98323.97;6218439;28;20243;-52
2023/08/21 02:18:46;;;;;;;12.27;11.07;;;;;;;17.40;100.00;98323.19;6216152;28;20389;-47
2023/08/21 02:21:48;;;;;;;12.20;10.93;;;;;;;17.38;100.00;98325.31;6215362;28;20314;-50
2023/08/21 02:24:51;;;;;;;12.37;11.07;;;;;;;17.38;100.00;98319.94;6217544;28;20309;-47
2023/08/21 02:27:53;;;;;;;11.40;10.30;;;;;;;17.38;100.00;98325.31;6198333;28;20247;-48
2023/08/21 02:30:56;;;;;;;13.93;11.10;;;;;;;17.37;100.00;98334.47;6215755;28;20243;-48
2023/08/21 02:33:58;;;;;;;13.67;10.90;;;;;;;17.34;100.00;98326.94;6217595;28;20799;-47
2023/08/21 02:37:00;;;;;;;12.13;10.87;;;;;;;17.32;100.00;98333.66;6216171;28;20613;-45
2023/08/21 02:40:03;;;;;;;11.90;10.70;;;;;;;17.31;100.00;98332.06;6212899;28;20370;-47
2023/08/21 02:43:05;;;;;;;11.80;10.60;;;;;;;17.30;100.00;98330.44;6216812;28;20248;-47
2023/08/21 02:46:08;;;;;;;10.87;9.87;;;;;;;17.26;100.00;98324.78;6216252;28;20318;-45
2023/08/21 02:49:10;;;;;;;11.43;10.37;;;;;;;17.33;100.00;98330.69;6211779;28;20757;-47
2023/08/21 02:52:13;;;;;;;11.43;10.27;;;;;;;17.31;100.00;98329.38;6217330;28;20236;-46
2023/08/21 02:55:16;;;;;;;13.47;11.30;;;;;;;17.27;100.00;98332.59;6215165;28;20235;-48
2023/08/21 02:58:19;;;;;;;11.70;10.70;;;;;;;17.25;100.00;98336.63;6191032;28;20247;-49
2023/08/21 03:01:22;;;;;;;11.73;10.53;;;;;;;17.21;100.00;98336.38;6216365;28;20703;-49
2023/08/21 03:04:24;;;;;;;13.63;11.53;;;;;;;17.20;100.00;98334.75;6199637;28;20228;-46
2023/08/21 03:07:26;;;;;;;12.37;11.17;;;;;;;17.18;100.00;98331.50;6198367;28;20653;-49
2023/08/21 03:10:33;;;;;;;14.37;11.10;;;;;;;17.16;100.00;98333.66;6198062;28;20232;-47
2023/08/21 03:13:35;;;;;;;12.10;11.00;;;;;;;17.15;100.00;98334.75;6217864;28;20235;-50
2023/08/21 03:16:37;;;;;;;12.07;10.93;;;;;;;17.15;100.00;98332.06;6194406;28;20604;-46
2023/08/21 03:19:40;;;;;;;12.43;11.10;;;;;;;17.14;100.00;98340.38;6211789;28;20240;-47
2023/08/21 03:22:42;;;;;;;10.40;9.50;;;;;;;17.10;100.00;98334.75;6215456;28;20244;-49
2023/08/21 03:25:44;;;;;;;10.90;10.00;;;;;;;17.10;100.00;98331.25;6216231;28;20316;-49
2023/08/21 03:28:46;;;;;;;11.63;10.53;;;;;;;17.11;100.00;98332.84;6188769;28;20243;-49
2023/08/21 03:31:54;;;;;;;11.93;10.70;;;;;;;17.10;100.00;98332.06;6191764;28;20224;-46
2023/08/21 03:34:56;;;;;;;12.17;11.07;;;;;;;16.93;100.00;98313.44;6186060;28;20780;-48
2023/08/21 03:37:58;;;;;;;12.03;10.93;;;;;;;17.02;100.00;98336.06;6191342;28;20712;-48
2023/08/21 03:41:05;;;;;;;12.63;11.23;;;;;;;17.02;100.00;98338.75;6188955;28;20835;-47
2023/08/21 03:44:07;;;;;;;10.83;9.77;;;;;;;17.01;100.00;98339.03;6186240;28;20235;-48
2023/08/21 03:47:10;;;;;;;10.47;9.57;;;;;;;17.00;100.00;98335.53;6192438;28;20252;-47
2023/08/21 03:50:22;;;;;;;10.93;9.93;;;;;;;17.00;100.00;98340.94;6185946;28;20235;-49
2023/08/21 03:53:24;;;;;;;10.40;9.50;;;;;;;17.01;100.00;98341.72;6188250;28;20256;-46
2023/08/21 03:56:27;;;;;;;10.87;9.80;;;;;;;16.98;100.00;98331.50;6191215;28;20716;-48
2023/08/21 03:59:29;;;;;;;11.83;10.70;;;;;;;16.97;100.00;98344.13;6191879;28;20283;-46
2023/08/21 04:02:31;;;;;;;10.77;9.77;;;;;;;16.96;100.00;98339.84;6190003;28;20228;-50
2023/08/21 04:05:33;;;;;;;11.43;9.93;;;;;;;16.94;100.00;98339.28;6190214;28;20620;-49
2023/08/21 04:08:35;;;;;;;10.93;9.93;;;;;;;16.92;100.00;98341.44;6190847;28;20224;-50
2023/08/21 04:11:38;;;;;;;11.27;10.27;;;;;;;16.85;100.00;98329.34;6188566;28;20276;-47
2023/08/21 04:14:40;;;;;;;12.27;11.07;;;;;;;16.89;100.00;98331.19;6192746;28;20678;-50
2023/08/21 04:17:42;;;;;;;10.47;9.47;;;;;;;16.90;100.00;98345.50;6191173;28;20687;-48
2023/08/21 04:20:44;;;;;;;12.17;10.97;;;;;;;16.91;100.00;98333.66;6191090;28;20668;-49
2023/08/21 04:23:47;;;;;;;12.63;11.37;;;;;;;16.92;100.00;98341.44;6189292;28;20255;-47
2023/08/21 04:26:49;;;;;;;13.93;12.57;;;;;;;16.95;100.00;98342.81;6187276;28;20810;-49
2023/08/21 04:29:52;;;;;;;14.30;12.70;;;;;;;16.90;100.00;98332.84;6192121;28;20366;-50
2023/08/21 04:32:55;;;;;;;15.37;10.73;;;;;;;16.94;100.00;98341.16;6189587;28;20263;-48
2023/08/21 04:35:58;;;;;;;13.10;11.17;;;;;;;16.79;100.00;98315.03;6187173;28;20228;-48
2023/08/21 04:39:00;;;;;;;12.40;11.20;;;;;;;16.94;100.00;98341.16;6191155;28;20274;-49
2023/08/21 04:42:02;;;;;;;13.43;10.50;;;;;;;16.94;100.00;98349.25;6186444;28;20332;-48
2023/08/21 04:45:05;;;;;;;12.90;11.57;;;;;;;16.95;100.00;98351.69;6191803;28;20249;-47
2023/08/21 04:48:10;;;;;;;12.73;11.27;;;;;;;16.98;100.00;98347.63;6195769;28;20216;-49
2023/08/21 04:51:13;;;;;;;14.23;12.20;;;;;;;17.00;100.00;98350.88;6194978;28;20287;-49
2023/08/21 04:54:16;;;;;;;12.13;11.03;;;;;;;17.00;100.00;98359.78;6189377;28;20212;-52
2023/08/21 04:57:20;;;;;;;13.20;11.87;;;;;;;17.04;100.00;98360.03;6189915;28;20212;-50
2023/08/21 05:00:23;;;;;;;12.00;10.90;;;;;;;17.00;100.00;98350.88;6189276;28;20235;-47
2023/08/21 05:03:26;;;;;;;12.93;11.73;;;;;;;17.04;100.00;98354.63;6192611;28;20270;-49
2023/08/21 05:06:29;;;;;;;12.97;11.67;;;;;;;17.12;100.00;98362.19;6197088;28;20659;-48
2023/08/21 05:09:32;;;;;;;12.37;11.20;;;;;;;17.14;100.00;98370.84;6193211;28;20224;-46
2023/08/21 05:12:35;;;;;;;11.93;10.83;;;;;;;17.16;100.00;98365.19;6196578;28;20239;-49
2023/08/21 05:15:37;;;;;;;12.80;11.60;;;;;;;17.18;100.00;98365.69;6192674;28;20231;-46
2023/08/21 05:18:39;;;;;;;11.60;10.60;;;;;;;17.19;100.00;98368.16;6199401;28;20256;-50
2023/08/21 05:21:42;;;;;;;12.47;11.37;;;;;;;17.19;100.00;98368.16;6198733;28;20594;-46
2023/08/21 05:24:45;;;;;;;12.47;11.27;;;;;;;17.24;100.00;98372.69;6189343;28;20594;-49
2023/08/21 05:27:49;;;;;;;12.87;11.67;;;;;;;17.26;100.00;98367.88;6198489;28;20315;-46
2023/08/21 05:30:52;;;;;;;12.47;11.37;;;;;;;17.28;100.00;98371.91;6218637;28;20231;-51
2023/08/21 05:33:55;;;;;;;13.03;11.73;;;;;;;17.32;100.00;98369.50;6200229;28;20223;-47
2023/08/21 05:36:57;;;;;;;13.30;11.97;;;;;;;17.34;100.00;98364.66;6205755;28;20613;-50
2023/08/21 05:40:00;;;;;;;13.43;12.13;;;;;;;17.37;100.00;98366.78;6200251;28;20346;-48
2023/08/21 05:43:02;;;;;;;13.27;11.83;;;;;;;17.39;100.00;98367.34;6198013;28;20231;-48
2023/08/21 05:46:06;;;;;;;14.13;12.80;;;;;;;17.42;100.00;98364.09;6218114;28;20232;-48
2023/08/21 05:49:08;;;;;;;14.10;12.47;;;;;;;17.47;100.00;98363.28;6200120;28;20228;-47
2023/08/21 05:52:10;;;;;;;13.53;12.33;;;;;;;17.52;100.00;98364.09;6221047;28;20285;-50
2023/08/21 05:55:13;;;;;;;14.23;12.90;;;;;;;17.56;100.00;98364.38;6216604;28;20228;-49
2023/08/21 05:58:15;;;;;;;13.47;12.27;;;;;;;17.61;100.00;98368.97;6199719;28;20232;-50
2023/08/21 06:01:18;;;;;;;15.30;13.90;;;;;;;17.64;100.00;98366.53;6215870;28;20245;-47
2023/08/21 06:04:20;;;;;;;16.00;14.43;;;;;;;17.68;100.00;98354.13;6201421;28;20236;-49
2023/08/21 06:07:32;;;;;;;15.53;13.97;;;;;;;17.77;100.00;98367.88;6200751;28;20290;-47
2023/08/21 06:10:35;;;;;;;14.87;13.47;;;;;;;17.83;100.00;98364.09;6194869;28;20239;-50
2023/08/21 06:13:37;;;;;;;15.60;14.10;;;;;;;17.89;100.00;98363.03;6215947;28;20235;-48
2023/08/21 06:16:40;;;;;;;16.03;14.33;;;;;;;17.99;100.00;98365.72;6198861;28;20240;-49
2023/08/21 06:19:42;;;;;;;16.10;14.40;;;;;;;18.08;100.00;98373.22;6202749;28;20293;-46
2023/08/21 06:22:44;;;;;;;15.70;14.17;;;;;;;18.17;100.00;98366.19;6217221;28;20238;-49
2023/08/21 06:25:49;;;;;;;15.10;13.80;;;;;;;18.28;100.00;98374.00;6216474;28;20696;-48
2023/08/21 06:28:54;;;;;;;14.50;12.97;;;;;;;18.37;100.00;98373.41;6170474;28;20245;-47
2023/08/21 06:31:59;;;;;;;13.17;11.93;;;;;;;18.47;100.00;98374.19;6190476;28;20871;-46
2023/08/21 06:35:04;;;;;;;14.40;13.00;;;;;;;18.58;100.00;98372.25;6195906;28;20368;-48
2023/08/21 06:38:10;;;;;;;13.20;12.00;;;;;;;18.69;100.00;98375.75;6190693;28;20248;-49
2023/08/21 06:41:12;;;;;;;13.57;12.27;;;;;;;18.78;100.00;98369.50;6192295;28;20217;-47
2023/08/21 06:44:16;;;;;;;14.43;13.03;;;;;;;18.91;100.00;98369.94;6193363;28;20221;-48
2023/08/21 06:47:19;;;;;;;14.07;12.67;;;;;;;18.94;100.00;98355.91;6200780;28;20218;-46
2023/08/21 06:50:21;;;;;;;14.43;13.03;;;;;;;19.16;100.00;98371.69;6179303;28;20303;-48
2023/08/21 06:53:23;;;;;;;14.90;13.50;;;;;;;19.28;100.00;98372.97;6193877;28;20225;-45
2023/08/21 06:56:26;;;;;;;13.80;12.60;;;;;;;19.47;100.00;98372.28;6199067;28;20216;-48
2023/08/21 06:59:28;;;;;;;13.80;12.50;;;;;;;19.63;100.00;98371.09;6192660;28;20236;-46
2023/08/21 07:02:33;;;;;;;12.77;11.67;;;;;;;19.79;100.00;98364.44;6192739;28;20224;-47
2023/08/21 07:05:37;;;;;;;11.87;10.87;;;;;;;19.97;100.00;98365.63;6192885;28;20279;-49
2023/08/21 07:08:40;;;;;;;11.93;10.93;;;;;;;20.15;100.00;98358.69;6195279;28;20213;-50
2023/08/21 07:11:43;;;;;;;12.30;11.20;;;;;;;20.34;100.00;98351.44;6192134;28;20673;-46
2023/08/21 07:14:55;;;;;;;10.37;9.43;;;;;;;20.55;100.00;98353.94;6195463;28;20216;-47
2023/08/21 07:18:01;;;;;;;11.57;10.67;;;;;;;20.73;100.00;98355.84;6194403;28;20293;-46
2023/08/21 07:21:05;;;;;;;15.03;13.70;;;;;;;20.94;100.00;98355.59;6350703;22;20265;-58
2023/08/21 07:24:23;;;;;;;13.77;12.57;;;;;;;21.15;100.00;98359.59;6192506;28;20614;-58
2023/08/21 07:27:25;;;;;;;12.73;11.67;;;;;;;21.37;100.00;98356.28;6213784;28;20212;-58
2023/08/21 07:30:28;;;;;;;12.77;11.50;;;;;;;21.53;100.00;98354.16;6202160;28;20214;-60
2023/08/21 07:33:30;;;;;;;12.10;11.03;;;;;;;21.79;100.00;98357.22;6221088;28;20668;-57
2023/08/21 07:36:33;;;;;;;11.03;10.13;;;;;;;21.95;100.00;98355.84;6217378;28;20329;-59
2023/08/21 07:39:35;;;;;;;9.73;8.93;;;;;;;22.19;100.00;98363.03;6213480;28;20236;-58
2023/08/21 07:42:38;;;;;;;9.10;8.33;;;;;;;22.36;100.00;98363.22;6217742;28;20224;-59
2023/08/21 07:45:43;;;;;;;9.63;8.83;;;;;;;22.49;100.00;98359.72;6218874;28;20252;-61
2023/08/21 07:48:46;;;;;;;9.13;8.23;;;;;;;22.58;100.00;98348.97;6199764;28;20208;-61
2023/08/21 07:51:48;;;;;;;9.40;8.67;;;;;;;22.74;99.79;98355.66;6216721;28;20302;-58
2023/08/21 07:54:54;;;;;;;9.38;8.55;;;;;;;22.84;98.41;98358.16;6216348;28;20230;-60
2023/08/21 07:57:57;;;;;;;9.85;8.95;;;;;;;22.95;96.58;98345.19;6216525;28;20217;-59
2023/08/21 08:01:01;;;;;;;9.63;8.80;;;;;;;23.14;95.14;98361.31;6220618;28;20235;-60
2023/08/21 08:04:04;;;;;;;8.60;7.90;;;;;;;23.28;94.59;98367.53;6214190;28;20217;-61
2023/08/21 08:07:13;;;;;;;8.10;7.50;;;;;;;23.37;92.85;98354.00;6216792;28;20222;-60
2023/08/21 08:10:30;;;;;;;7.82;7.20;;;;;;;23.57;91.66;98358.13;6216527;28;20238;-61
2023/08/21 08:13:32;;;;;;;8.98;8.23;;;;;;;23.72;90.30;98371.38;6219049;28;20224;-60
2023/08/21 08:16:34;;;;;;;8.38;7.68;;;;;;;23.80;88.94;98351.59;6214094;28;20224;-61
2023/08/21 08:19:37;;;;;;;8.35;7.45;;;;;;;23.99;88.97;98358.72;6216167;28;20252;-61
2023/08/21 08:22:39;;;;;;;8.73;8.02;;;;;;;24.11;89.27;98370.63;6217426;28;20251;-60
2023/08/21 08:25:42;;;;;;;8.15;7.45;;;;;;;24.23;88.94;98361.06;6216568;28;20227;-61
2023/08/21 08:28:44;;;;;;;8.90;7.93;;;;;;;24.32;87.83;98340.91;6210094;28;20228;-60
2023/08/21 08:31:47;;;;;;;8.63;7.63;;;;;;;24.53;87.85;98359.44;6215933;28;20217;-60
2023/08/21 08:34:49;;;;;;;7.90;7.20;;;;;;;24.67;87.68;98357.38;6216022;28;20221;-60
2023/08/21 08:37:51;;;;;;;8.00;7.40;;;;;;;24.78;86.09;98364.16;6220345;28;20212;-59
2023/08/21 08:40:55;;;;;;;8.75;7.95;;;;;;;24.88;84.19;98355.66;6216547;28;20318;-61
2023/08/21 08:43:58;;;;;;;8.27;7.57;;;;;;;24.99;82.99;98356.16;6220470;28;20226;-60
2023/08/21 08:47:04;;;;;;;8.50;7.70;;;;;;;25.10;81.35;98359.41;6224352;28;20212;-59
2023/08/21 08:50:11;;;;;;;8.38;7.68;;;;;;;25.18;80.58;98359.41;6221342;28;20654;-60
2023/08/21 08:53:14;;;;;;;8.00;7.20;;;;;;;25.28;80.10;98361.00;6187507;28;20216;-60
2023/08/21 08:56:19;;;;;;;8.25;7.45;;;;;;;25.36;79.04;98357.44;6201275;28;20334;-60
2023/08/21 09:02:54;;;;;;;7.78;7.07;;;;;;;25.61;78.87;98346.84;6231565;28;20254;-51
2023/08/21 09:06:00;;;;;;;8.73;7.93;;;;;;;25.71;78.55;98351.94;6228108;28;20227;-51
2023/08/21 09:09:02;;;;;;;8.73;7.68;;;;;;;25.88;74.25;98351.94;6232440;28;20256;-52
2023/08/21 09:12:12;;;;;;;8.95;8.15;;;;;;;26.08;75.56;98349.63;6228615;28;20230;-53
2023/08/21 09:15:15;;;;;;;8.48;7.78;;;;;;;26.16;73.80;98340.63;6230541;28;20226;-51
2023/08/21 09:18:19;;;;;;;8.50;7.70;;;;;;;26.48;68.08;98350.91;6210695;28;20714;-53
2023/08/21 09:21:25;;;;;;;8.68;7.88;;;;;;;26.55;71.25;98357.78;6214634;28;20228;-53
2023/08/21 09:24:27;;;;;;;9.45;7.72;;;;;;;26.74;67.48;98353.50;6232497;28;20216;-56
2023/08/21 09:27:30;;;;;;;8.85;7.97;;;;;;;26.80;68.84;98350.56;6231661;28;20314;-52
2023/08/21 09:30:47;;;;;;;10.48;8.18;;;;;;;26.78;68.01;98339.97;6228187;28;20623;-54
2023/08/21 09:34:04;;;;;;;8.23;7.50;;;;;;;27.01;61.53;98348.66;6215083;28;20216;-51
2023/08/21 09:37:08;;;;;;;8.50;7.10;;;;;;;27.30;57.51;98344.28;6231676;28;20220;-51
2023/08/21 09:40:11;;;;;;;8.25;7.47;;;;;;;27.71;56.80;98351.63;6228907;28;20247;-52
2023/08/21 09:43:13;;;;;;;8.25;7.55;;;;;;;27.81;54.91;98342.19;6231507;28;20224;-54
2023/08/21 09:46:25;;;;;;;7.72;7.03;;;;;;;27.84;56.71;98338.78;6233433;28;20692;-53
2023/08/21 09:49:28;;;;;;;11.48;7.88;;;;;;;28.04;51.98;98343.38;6228693;28;20357;-55
2023/08/21 09:52:30;;;;;;;8.60;7.70;;;;;;;28.28;51.57;98329.69;6232383;28;20227;-54
2023/08/21 09:55:33;;;;;;;6.90;6.30;;;;;;;28.29;55.11;98336.75;6231874;28;20703;-51
2023/08/21 09:58:36;;;;;;;7.78;7.03;;;;;;;28.23;58.22;98331.84;6310210;22;20244;-53
2023/08/21 10:01:39;;;;;;;6.90;6.40;;;;;;;28.40;53.01;98334.38;6220595;28;20569;-54
2023/08/21 10:04:45;;;;;;;8.30;6.82;;;;;;;28.46;52.42;98330.25;6219626;28;20216;-54
2023/08/21 10:07:49;;;;;;;8.27;6.50;;;;;;;28.69;47.54;98332.53;6220326;28;20243;-54
2023/08/21 10:10:53;;;;;;;6.82;6.13;;;;;;;28.75;47.83;98336.63;6219942;28;20227;-54
2023/08/21 10:13:56;;;;;;;7.25;6.63;;;;;;;28.73;50.22;98336.19;6216359;28;20220;-58
2023/08/21 10:16:59;;;;;;;8.70;7.05;;;;;;;28.64;53.92;98332.78;6218602;28;20229;-57
2023/08/21 10:20:07;;;;;;;10.52;7.50;;;;;;;28.52;52.46;98328.09;6218784;28;20616;-58
2023/08/21 10:23:09;;;;;;;6.90;6.30;;;;;;;28.53;50.49;98330.50;6217193;28;20688;-57
2023/08/21 10:26:11;;;;;;;7.10;6.50;;;;;;;28.57;53.14;98324.31;6219875;28;20225;-58
2023/08/21 10:29:13;;;;;;;6.85;6.15;;;;;;;28.75;44.75;98325.66;6215162;28;20220;-51
2023/08/21 10:32:22;;;;;;;6.80;6.05;;;;;;;29.11;43.04;98321.25;6221221;28;20246;-49
2023/08/21 10:35:29;;;;;;;5.93;5.30;;;;;;;29.29;42.63;98322.56;6222433;28;20228;-51
2023/08/21 10:38:32;;;;;;;5.88;5.38;;;;;;;29.30;46.48;98327.69;6215611;28;20277;-51
2023/08/21 10:41:36;;;;;;;6.53;5.93;;;;;;;29.23;48.55;98323.97;6217783;28;20244;-52
2023/08/21 10:44:41;;;;;;;7.28;5.97;;;;;;;29.17;45.70;98317.94;6217932;28;20223;-52
2023/08/21 10:47:46;;;;;;;12.32;5.75;;;;;;;29.11;50.57;98322.03;6216132;28;20224;-50
2023/08/21 10:50:49;;;;;;;6.57;5.97;;;;;;;28.98;52.71;98326.78;6218571;28;20278;-52
2023/08/21 10:53:54;;;;;;;7.25;5.88;;;;;;;29.10;47.04;98316.91;6215573;28;20246;-54
2023/08/21 10:56:56;;;;;;;6.00;5.30;;;;;;;29.11;49.10;98313.81;6217707;28;20239;-50
2023/08/21 11:00:00;;;;;;;6.15;5.63;;;;;;;29.18;48.28;98315.97;6217282;28;20232;-53
2023/08/21 11:03:03;;;;;;;5.88;5.35;;;;;;;29.19;45.78;98314.81;6213197;28;20248;-49
2023/08/21 11:06:09;;;;;;;5.95;5.45;;;;;;;29.22;44.81;98309.44;6218562;28;20277;-53
2023/08/21 11:09:16;;;;;;;6.18;5.57;;;;;;;29.27;45.63;98308.41;6217621;28;20212;-52
2023/08/21 11:12:24;;;;;;;6.10;5.50;;;;;;;29.42;44.51;98301.34;6218643;28;20220;-51
2023/08/21 11:15:28;;;;;;;5.70;5.20;;;;;;;29.46;48.00;98310.50;6216611;28;20224;-52
2023/08/21 11:18:35;;;;;;;6.85;5.78;;;;;;;29.47;41.68;98307.38;6218963;28;20278;-50
2023/08/21 11:21:38;;;;;;;8.07;5.60;;;;;;;29.76;40.49;98297.97;6215705;28;20327;-50
2023/08/21 11:24:45;;;;;;;7.40;5.60;;;;;;;30.04;38.42;98308.88;6217739;28;20238;-51
2023/08/21 11:27:48;;;;;;;5.65;4.68;;;;;;;30.04;39.13;98303.38;6215824;28;20224;-49
2023/08/21 11:30:50;;;;;;;6.35;5.78;;;;;;;30.05;39.20;98307.72;6220507;28;20435;-54
2023/08/21 11:33:52;;;;;;;5.93;5.07;;;;;;;29.98;40.17;98299.31;6213466;28;20219;-50
2023/08/21 11:36:55;;;;;;;6.40;4.78;;;;;;;30.10;40.77;98301.19;6217883;28;20214;-49
2023/08/21 11:39:58;;;;;;;6.38;4.80;;;;;;;30.14;41.57;98296.56;6218362;28;20313;-50
2023/08/21 11:43:03;;;;;;;7.65;5.07;;;;;;;30.28;38.72;98301.63;6219500;28;20273;-52
2023/08/21 11:46:13;;;;;;;6.22;5.22;;;;;;;30.28;39.30;98296.13;6217666;28;20578;-51
2023/08/21 11:49:16;;;;;;;5.68;4.53;;;;;;;30.36;40.01;98288.84;6218693;28;20213;-50
2023/08/21 11:52:26;;;;;;;4.82;4.43;;;;;;;30.45;38.74;98292.19;6217927;28;20770;-52
2023/08/21 11:55:29;;;;;;;4.75;4.32;;;;;;;30.42;40.68;98287.41;6218653;28;20227;-53
2023/08/21 11:58:31;;;;;;;5.85;4.35;;;;;;;30.33;39.32;98293.88;6217911;28;20223;-51
2023/08/21 12:01:33;;;;;;;8.05;4.78;;;;;;;30.30;38.10;98288.31;6217749;28;20250;-53
2023/08/21 12:04:39;;;;;;;6.93;4.70;;;;;;;30.51;37.24;98277.81;6218598;28;20218;-48
2023/08/21 12:07:45;;;;;;;6.13;4.70;;;;;;;30.50;37.77;98286.44;6216711;28;20581;-50
2023/08/21 12:10:54;;;;;;;7.55;4.57;;;;;;;30.47;39.52;98274.19;6219573;28;20520;-51
2023/08/21 12:13:56;;;;;;;6.07;4.55;;;;;;;30.56;38.55;98284.97;6213730;28;20227;-53
2023/08/21 12:17:00;;;;;;;4.82;4.32;;;;;;;30.55;39.65;98281.44;6216923;28;20236;-52
2023/08/21 12:20:10;;;;;;;5.80;4.60;;;;;;;30.35;40.74;98255.06;6212388;28;20728;-51
2023/08/21 12:23:12;;;;;;;8.10;5.22;;;;;;;30.36;42.96;98270.41;6217416;28;20308;-52
2023/08/21 12:26:21;;;;;;;4.35;3.92;;;;;;;30.33;41.57;98266.41;6214994;28;20682;-51
2023/08/21 12:29:27;;;;;;;4.75;4.22;;;;;;;30.33;39.40;98260.91;6213553;28;20227;-53
2023/08/21 12:32:30;;;;;;;5.72;4.25;;;;;;;30.39;37.65;98255.13;6217402;28;20359;-52
2023/08/21 12:35:32;;;;;;;6.10;4.75;;;;;;;30.40;38.12;98257.53;6208653;28;20217;-51
2023/08/21 12:38:34;;;;;;;4.53;3.88;;;;;;;30.33;40.13;98251.84;6217046;28;20216;-51
2023/08/21 12:41:37;;;;;;;4.60;4.07;;;;;;;30.28;40.29;98257.63;6219119;28;20254;-47
2023/08/21 12:44:39;;;;;;;6.25;4.15;;;;;;;30.29;39.64;98251.78;6216673;28;20215;-50
2023/08/21 12:47:42;;;;;;;4.22;3.80;;;;;;;30.28;40.53;98246.63;6218013;28;20735;-48
2023/08/21 12:50:44;;;;;;;5.55;4.55;;;;;;;30.27;40.92;98247.78;6217085;28;20692;-52
2023/08/21 12:53:47;;;;;;;7.20;5.00;;;;;;;30.24;43.50;98240.25;6214866;28;20224;-50
2023/08/21 12:56:49;;;;;;;6.10;4.60;;;;;;;30.36;38.93;98239.38;6215474;28;20212;-51
2023/08/21 12:59:52;;;;;;;7.18;4.57;;;;;;;30.39;39.15;98241.38;6215548;28;20379;-47
2023/08/21 13:02:54;;;;;;;5.80;4.57;;;;;;;30.39;38.47;98238.63;6215154;28;20586;-50
2023/08/21 13:05:57;;;;;;;7.28;4.88;;;;;;;30.47;38.06;98241.19;6216384;28;20224;-49
2023/08/21 13:08:59;;;;;;;6.50;3.72;;;;;;;30.43;39.63;98231.25;6213414;28;20220;-51
2023/08/21 13:12:02;;;;;;;15.63;13.60;;;;;;;30.32;41.75;98226.31;6215459;28;20244;-50
2023/08/21 13:15:07;;;;;;;5.72;5.13;;;;;;;30.21;43.02;98230.00;6228189;28;20654;-48
2023/08/21 13:18:09;;;;;;;4.75;3.88;;;;;;;30.06;39.98;98209.59;6216253;28;20331;-50
2023/08/21 13:21:12;;;;;;;5.13;4.18;;;;;;;30.18;41.18;98222.47;6214300;28;20250;-48
2023/08/21 13:24:14;;;;;;;5.78;4.18;;;;;;;30.03;43.26;98216.59;6219361;28;20220;-48
2023/08/21 13:27:16;;;;;;;5.00;4.32;;;;;;;30.28;37.88;98217.19;6218997;28;20557;-48
2023/08/21 13:30:20;;;;;;;5.03;4.00;;;;;;;30.27;40.02;98217.56;6221948;28;20232;-49
2023/08/21 13:33:22;;;;;;;6.50;4.28;;;;;;;30.09;41.95;98203.38;6211265;28;20711;-49
2023/08/21 13:36:24;;;;;;;4.50;4.00;;;;;;;30.01;43.43;98207.13;6221251;28;20221;-49
2023/08/21 13:39:31;;;;;;;5.13;3.95;;;;;;;29.93;44.78;98208.09;6217673;28;20231;-47
2023/08/21 13:42:37;;;;;;;4.53;3.80;;;;;;;30.28;37.61;98195.22;6218699;28;20242;-47
2023/08/21 13:45:42;;;;;;;5.38;3.95;;;;;;;30.40;40.51;98193.50;6219158;28;20224;-47
2023/08/21 13:48:44;;;;;;;5.95;4.15;;;;;;;30.16;42.31;98191.78;6220294;28;20228;-49
2023/08/21 13:51:47;;;;;;;6.38;4.05;;;;;;;29.98;44.08;98194.91;6217582;28;20217;-50
2023/08/21 13:54:49;;;;;;;6.90;4.35;;;;;;;29.91;41.95;98192.00;6219435;28;20219;-50
2023/08/21 13:57:52;;;;;;;4.95;3.95;;;;;;;29.80;41.22;98186.25;6220229;28;20315;-49
2023/08/21 14:00:56;;;;;;;4.50;4.10;;;;;;;29.66;42.20;98185.91;6217840;28;20329;-47
2023/08/21 14:03:59;;;;;;;7.03;4.32;;;;;;;29.77;37.53;98183.41;6218716;28;20240;-47
2023/08/21 14:07:01;;;;;;;5.35;4.10;;;;;;;29.87;40.51;98180.13;6219267;28;20229;-51
2023/08/21 14:10:05;;;;;;;5.60;4.35;;;;;;;29.76;42.23;98177.13;6220799;28;20216;-49